Flight Track Log - Related Links

Times and Time Zones

All times are in EDT time to prevent confusion due to time zone crossing. See the N682RW flight status page for this flight to view local times or setup timezone preferences in your user account.

Time Position Orientation Groundspeed Altitude Reporting Facility
EDT Latitude Longitude Course Direction KTS MPH feet Rate Location/Type
Thu 05:56:40 PM 42.1900 -83.3564 199° South 184 212 1,200  Level Cleveland Center
Thu 05:58:10 PM 42.1103 -83.3933 199° South 235 270 4,400 2,418 Climbing Cleveland Center
Thu 05:58:54 PM 42.0469 -83.4178 196° South 267 307 6,600 2,323 Climbing Cleveland Center
Thu 05:59:12 PM 42.0286 -83.4167 177° South 267 307 6,800 1,869 Climbing Cleveland Center
Thu 05:59:55 PM 41.9839 -83.3667 140° Southeast 287 330 8,500 2,129 Climbing Cleveland Center
Thu 06:00:14 PM 41.9758 -83.3431 115° Southeast 288 331 9,000 1,185 Climbing Cleveland Center
Thu 06:01:16 PM 41.9928 -83.2333 78° East 294 338 10,100 480 Climbing Cleveland Center
Thu 06:02:19 PM 42.0175 -83.0983 76° East 357 411 10,000 96 Descending Cleveland Center
Thu 06:03:21 PM 42.0303 -82.9689 82° East 357 411 10,300 1,065 Climbing Cleveland Center
Thu 06:04:23 PM 42.0461 -82.8347 81° East 362 417 12,200 1,306 Climbing Cleveland Center
Thu 06:05:25 PM 42.0506 -82.6619 88° East 386 444 13,000 387 Climbing Cleveland Center
Thu 06:06:27 PM 42.0231 -82.5228 105° East 386 444 13,000  Level Cleveland Center
Thu 06:07:29 PM 41.9997 -82.3822 103° East 386 444 13,000  Level Cleveland Center
Thu 06:08:31 PM 41.9769 -82.2422 102° East 386 444 13,000  Level Cleveland Center
Thu 06:09:33 PM 41.9514 -82.0939 103° East 386 444 13,000 -186 Level Cleveland Center
Thu 06:10:08 PM 41.9358 -82.0017 103° East 387 445 12,700 -774 Descending Cleveland Center
Thu 06:10:35 PM 41.9283 -81.9539 102° East 384 442 12,200 -1,200 Descending Cleveland Center
Thu 06:11:38 PM 41.9044 -81.8247 104° East 359 413 10,900 -1,392 Descending Cleveland Center
Thu 06:12:40 PM 41.8236 -81.7375 141° Southeast 315 362 9,300 -1,742 Descending Cleveland Center
Thu 06:13:42 PM 41.7564 -81.6839 149° Southeast 284 327 7,300 -2,087 Descending Cleveland Center
Thu 06:14:35 PM 41.6961 -81.6394 151° Southeast 266 306 5,300 -1,833 Descending Cleveland Center
Thu 06:15:30 PM 41.6469 -81.6008 150° Southeast 238 274 4,000 -1,352 Descending Cleveland Center
Thu 06:15:46 PM 41.6328 -81.5922 156° South 250 288 3,700 -800 Descending Cleveland Center
Thu 06:16:30 PM 41.5908 -81.6172 204° Southwest 205 236 3,200 -581 Descending Cleveland Center
Thu 06:16:48 PM 41.5828 -81.6264 220° Southwest 223 257 3,100 -90 Descending Cleveland Center
Thu 06:17:37 PM 41.5533 -81.6839 236° Southwest 210 242 3,100 -97 Level Cleveland Center
Thu 06:17:50 PM 41.5481 -81.6906 223° Southwest 215 247 3,000 -984 Descending Cleveland Center
Thu 06:18:38 PM 41.5222 -81.7486 239° Southwest 204 235 2,100 -871 Descending Cleveland Center
Thu 06:18:52 PM 41.5194 -81.7553 241° Southwest 208 239 2,100 -800 Level Cleveland Center
Thu 06:19:38 PM 41.4947 -81.7303 143° Southeast 140 161 1,300 -952 Descending Cleveland Center
Thu 06:19:55 PM 41.5011 -81.7178 56° Northeast 159 183 1,100 -304 Descending Cleveland Center
Thu 06:20:57 PM 41.5189 -81.6828 56° Northeast 149 171 900 -194 Descending Cleveland Center

Login

Don't have an account? Register now (free) for customized features, flight alerts, and more!